Terminal Aerodrome Forecast
Issued by NWS Cleveland, OH

Home | Current Version | Previous Version | Graphics & Text | Print | Product List | Glossary On
Versions: 1 2 3 4 5 6 7 8 9 10 11 12 13 14 15
000
FTUS41 KCLE 271134
TAFYNG
TAF
KYNG 271134Z 2712/2812 20008KT P6SM SCT008 SCT015 BKN120
      TEMPO 2712/2714 SCT008 BKN015 OVC120
     FM271400 22010G20KT P6SM BKN015
     FM271600 22015G25KT P6SM BKN040
     FM271900 24015G25KT P6SM BKN050
      TEMPO 2722/2801 3SM -TSRA BR OVC035CB
     FM280500 26005KT 6SM BR BKN035 OVC080
     FM280900 31003KT 3SM BR SCT035=

USA.gov is the U.S. government's official web portal to all federal, state and local government web resources and services.